Alba, Missouri
Current Conditions -  °F | °C
As of 12:53 PM on Friday 31 Oct 2014 (Local Time) from KJLN Reporting Station
Clear Clear  
Wind Chill: 41°   Ceiling: Unl
Heat Index: 47°   Visibility: 10mi
Dew Point: 27°   Wind: 14mph
Humidity: 46%   Direction: 20°NNE
Pressure: 30.42"   Gusts: 20mph
Location:  37.24°N, 94.42°W
Report Text: KJLN 311753Z 02012G17KT 10SM CLR 08/M03 A3042 RMK AO2 SLP302 T00831028 10083 20050 50004
Loading
Personal Weather Stations






























Interactive Weather Map
Tropical Storm Tracking
New forecast layout! Learn more

10-Day Weather Forecast

Advertisements
Track Severe Weather on mobile